sensor_id;sensor_type;location;lat;lon;timestamp;temperature;humidity
76211;DHT22;65003;49.518;11.280;2024-02-23T00:00:23;10.60;99.90
76211;DHT22;65003;49.518;11.280;2024-02-23T00:02:50;10.60;99.90
76211;DHT22;65003;49.518;11.280;2024-02-23T00:05:17;10.60;99.90
76211;DHT22;65003;49.518;11.280;2024-02-23T00:07:43;10.60;99.90
76211;DHT22;65003;49.518;11.280;2024-02-23T00:10:10;10.40;99.90
76211;DHT22;65003;49.518;11.280;2024-02-23T00:12:36;10.30;99.90
76211;DHT22;65003;49.518;11.280;2024-02-23T00:15:03;10.50;99.90
76211;DHT22;65003;49.518;11.280;2024-02-23T00:17:30;10.60;99.90
76211;DHT22;65003;49.518;11.280;2024-02-23T00:19:56;9.80;99.90
76211;DHT22;65003;49.518;11.280;2024-02-23T00:22:23;10.40;99.90
76211;DHT22;65003;49.518;11.280;2024-02-23T00:24:49;10.40;99.90
76211;DHT22;65003;49.518;11.280;2024-02-23T00:27:16;10.40;99.90
76211;DHT22;65003;49.518;11.280;2024-02-23T00:29:43;10.30;99.90
76211;DHT22;65003;49.518;11.280;2024-02-23T00:32:09;10.30;99.90
76211;DHT22;65003;49.518;11.280;2024-02-23T00:34:36;10.30;99.90
76211;DHT22;65003;49.518;11.280;2024-02-23T00:37:02;10.30;99.90
76211;DHT22;65003;49.518;11.280;2024-02-23T00:39:29;10.40;99.90
76211;DHT22;65003;49.518;11.280;2024-02-23T00:41:56;10.30;99.90
76211;DHT22;65003;49.518;11.280;2024-02-23T00:44:22;10.30;99.90
76211;DHT22;65003;49.518;11.280;2024-02-23T00:46:49;10.30;99.90
76211;DHT22;65003;49.518;11.280;2024-02-23T00:49:15;10.20;99.90
76211;DHT22;65003;49.518;11.280;2024-02-23T00:51:42;10.30;99.90
76211;DHT22;65003;49.518;11.280;2024-02-23T00:54:08;10.20;99.90
76211;DHT22;65003;49.518;11.280;2024-02-23T00:56:35;10.20;99.90
76211;DHT22;65003;49.518;11.280;2024-02-23T00:59:02;9.90;99.90
76211;DHT22;65003;49.518;11.280;2024-02-23T01:01:28;9.70;99.90
76211;DHT22;65003;49.518;11.280;2024-02-23T01:03:55;10.00;99.90
76211;DHT22;65003;49.518;11.280;2024-02-23T01:06:22;9.80;99.90
76211;DHT22;65003;49.518;11.280;2024-02-23T01:08:48;9.80;99.90
76211;DHT22;65003;49.518;11.280;2024-02-23T01:11:15;9.80;99.90
76211;DHT22;65003;49.518;11.280;2024-02-23T01:13:41;9.70;99.90
76211;DHT22;65003;49.518;11.280;2024-02-23T01:16:08;9.70;99.90
76211;DHT22;65003;49.518;11.280;2024-02-23T01:18:35;9.60;99.90
76211;DHT22;65003;49.518;11.280;2024-02-23T01:21:01;9.60;99.90
76211;DHT22;65003;49.518;11.280;2024-02-23T01:23:28;9.70;99.90
76211;DHT22;65003;49.518;11.280;2024-02-23T01:25:54;9.50;99.90
76211;DHT22;65003;49.518;11.280;2024-02-23T01:28:21;9.50;99.90
76211;DHT22;65003;49.518;11.280;2024-02-23T01:30:47;9.40;99.90
76211;DHT22;65003;49.518;11.280;2024-02-23T01:33:14;9.30;99.90
76211;DHT22;65003;49.518;11.280;2024-02-23T01:35:41;9.30;99.90
76211;DHT22;65003;49.518;11.280;2024-02-23T01:38:07;9.20;99.90
76211;DHT22;65003;49.518;11.280;2024-02-23T01:40:34;9.10;99.90
76211;DHT22;65003;49.518;11.280;2024-02-23T01:43:02;9.00;99.90
76211;DHT22;65003;49.518;11.280;2024-02-23T01:45:28;9.00;99.90
76211;DHT22;65003;49.518;11.280;2024-02-23T01:47:54;9.20;99.90
76211;DHT22;65003;49.518;11.280;2024-02-23T01:50:21;9.10;99.90
76211;DHT22;65003;49.518;11.280;2024-02-23T01:52:48;9.00;99.90
76211;DHT22;65003;49.518;11.280;2024-02-23T01:55:14;9.20;99.90
76211;DHT22;65003;49.518;11.280;2024-02-23T01:57:41;8.90;99.90
76211;DHT22;65003;49.518;11.280;2024-02-23T02:00:08;8.90;99.90
76211;DHT22;65003;49.518;11.280;2024-02-23T02:02:35;8.80;99.90
76211;DHT22;65003;49.518;11.280;2024-02-23T02:05:02;8.60;99.90
76211;DHT22;65003;49.518;11.280;2024-02-23T02:07:28;8.60;99.90
76211;DHT22;65003;49.518;11.280;2024-02-23T02:09:55;8.70;99.90
76211;DHT22;65003;49.518;11.280;2024-02-23T02:12:27;8.60;99.90
76211;DHT22;65003;49.518;11.280;2024-02-23T02:14:53;8.60;99.90
76211;DHT22;65003;49.518;11.280;2024-02-23T02:17:19;8.70;99.90
76211;DHT22;65003;49.518;11.280;2024-02-23T02:19:48;8.70;99.90
76211;DHT22;65003;49.518;11.280;2024-02-23T02:22:14;8.80;99.90
76211;DHT22;65003;49.518;11.280;2024-02-23T02:24:41;8.40;99.90
76211;DHT22;65003;49.518;11.280;2024-02-23T02:27:08;8.70;99.90
76211;DHT22;65003;49.518;11.280;2024-02-23T02:29:35;8.60;99.90
76211;DHT22;65003;49.518;11.280;2024-02-23T02:32:01;8.60;99.90
76211;DHT22;65003;49.518;11.280;2024-02-23T02:34:28;8.60;99.90
76211;DHT22;65003;49.518;11.280;2024-02-23T02:36:54;8.60;99.90
76211;DHT22;65003;49.518;11.280;2024-02-23T02:39:21;8.60;99.90
76211;DHT22;65003;49.518;11.280;2024-02-23T02:41:48;8.60;99.90
76211;DHT22;65003;49.518;11.280;2024-02-23T02:44:15;8.50;99.90
76211;DHT22;65003;49.518;11.280;2024-02-23T02:46:42;8.50;99.90
76211;DHT22;65003;49.518;11.280;2024-02-23T02:49:08;8.40;99.90
76211;DHT22;65003;49.518;11.280;2024-02-23T02:51:35;8.50;99.90
76211;DHT22;65003;49.518;11.280;2024-02-23T02:54:01;8.50;99.90
76211;DHT22;65003;49.518;11.280;2024-02-23T02:56:28;8.40;99.90
76211;DHT22;65003;49.518;11.280;2024-02-23T02:58:55;8.20;99.90
76211;DHT22;65003;49.518;11.280;2024-02-23T03:01:21;8.40;99.90
76211;DHT22;65003;49.518;11.280;2024-02-23T03:03:48;8.40;99.90
76211;DHT22;65003;49.518;11.280;2024-02-23T03:06:14;8.60;99.90
76211;DHT22;65003;49.518;11.280;2024-02-23T03:08:42;8.50;99.90
76211;DHT22;65003;49.518;11.280;2024-02-23T03:11:08;8.40;99.90
76211;DHT22;65003;49.518;11.280;2024-02-23T03:13:35;8.60;99.90
76211;DHT22;65003;49.518;11.280;2024-02-23T03:16:02;8.50;99.90
76211;DHT22;65003;49.518;11.280;2024-02-23T03:18:28;8.40;99.90
76211;DHT22;65003;49.518;11.280;2024-02-23T03:20:55;8.40;99.90
76211;DHT22;65003;49.518;11.280;2024-02-23T03:23:21;8.30;99.90
76211;DHT22;65003;49.518;11.280;2024-02-23T03:25:48;8.30;99.90
76211;DHT22;65003;49.518;11.280;2024-02-23T03:28:14;8.40;99.90
76211;DHT22;65003;49.518;11.280;2024-02-23T03:30:41;8.30;99.90
76211;DHT22;65003;49.518;11.280;2024-02-23T03:33:08;8.50;99.90
76211;DHT22;65003;49.518;11.280;2024-02-23T03:35:34;8.40;99.90
76211;DHT22;65003;49.518;11.280;2024-02-23T03:38:01;8.30;99.90
76211;DHT22;65003;49.518;11.280;2024-02-23T03:40:27;8.30;99.90
76211;DHT22;65003;49.518;11.280;2024-02-23T03:42:54;8.10;99.90
76211;DHT22;65003;49.518;11.280;2024-02-23T03:45:21;8.50;99.90
76211;DHT22;65003;49.518;11.280;2024-02-23T03:47:47;8.30;99.90
76211;DHT22;65003;49.518;11.280;2024-02-23T03:50:14;8.20;99.90
76211;DHT22;65003;49.518;11.280;2024-02-23T03:52:40;8.20;99.90
76211;DHT22;65003;49.518;11.280;2024-02-23T03:55:07;8.10;99.90
76211;DHT22;65003;49.518;11.280;2024-02-23T03:57:34;8.10;99.90
76211;DHT22;65003;49.518;11.280;2024-02-23T04:00:00;8.10;99.90
76211;DHT22;65003;49.518;11.280;2024-02-23T04:02:27;8.10;99.90
76211;DHT22;65003;49.518;11.280;2024-02-23T04:04:54;8.10;99.90
76211;DHT22;65003;49.518;11.280;2024-02-23T04:07:20;8.20;99.90
76211;DHT22;65003;49.518;11.280;2024-02-23T04:09:47;8.20;99.90
76211;DHT22;65003;49.518;11.280;2024-02-23T04:12:15;8.30;99.90
76211;DHT22;65003;49.518;11.280;2024-02-23T04:14:42;8.20;99.90
76211;DHT22;65003;49.518;11.280;2024-02-23T04:17:08;8.40;99.90
76211;DHT22;65003;49.518;11.280;2024-02-23T04:19:35;8.50;99.90
76211;DHT22;65003;49.518;11.280;2024-02-23T04:22:02;8.40;99.90
76211;DHT22;65003;49.518;11.280;2024-02-23T04:24:29;8.20;99.90
76211;DHT22;65003;49.518;11.280;2024-02-23T04:26:55;8.20;99.90
76211;DHT22;65003;49.518;11.280;2024-02-23T04:29:22;7.90;99.90
76211;DHT22;65003;49.518;11.280;2024-02-23T04:31:49;8.30;99.90
76211;DHT22;65003;49.518;11.280;2024-02-23T04:34:15;8.30;99.90
76211;DHT22;65003;49.518;11.280;2024-02-23T04:36:43;8.20;99.90
76211;DHT22;65003;49.518;11.280;2024-02-23T04:39:09;8.30;99.90
76211;DHT22;65003;49.518;11.280;2024-02-23T04:41:36;8.30;99.90
76211;DHT22;65003;49.518;11.280;2024-02-23T04:44:03;8.40;99.90
76211;DHT22;65003;49.518;11.280;2024-02-23T04:46:30;8.20;99.90
76211;DHT22;65003;49.518;11.280;2024-02-23T04:48:56;8.20;99.90
76211;DHT22;65003;49.518;11.280;2024-02-23T04:51:22;8.20;99.90
76211;DHT22;65003;49.518;11.280;2024-02-23T04:53:49;8.20;99.90
76211;DHT22;65003;49.518;11.280;2024-02-23T04:56:16;8.10;99.90
76211;DHT22;65003;49.518;11.280;2024-02-23T04:58:44;8.20;99.90
76211;DHT22;65003;49.518;11.280;2024-02-23T05:01:11;8.10;99.90
76211;DHT22;65003;49.518;11.280;2024-02-23T05:03:37;8.00;99.90
76211;DHT22;65003;49.518;11.280;2024-02-23T05:06:09;7.90;99.90
76211;DHT22;65003;49.518;11.280;2024-02-23T05:08:35;8.00;99.90
76211;DHT22;65003;49.518;11.280;2024-02-23T05:11:02;8.10;99.90
76211;DHT22;65003;49.518;11.280;2024-02-23T05:13:28;7.80;99.90
76211;DHT22;65003;49.518;11.280;2024-02-23T05:15:55;7.90;99.90
76211;DHT22;65003;49.518;11.280;2024-02-23T05:18:22;8.00;99.90
76211;DHT22;65003;49.518;11.280;2024-02-23T05:20:48;7.80;99.90
76211;DHT22;65003;49.518;11.280;2024-02-23T05:23:15;7.90;99.90
76211;DHT22;65003;49.518;11.280;2024-02-23T05:25:42;7.80;99.90
76211;DHT22;65003;49.518;11.280;2024-02-23T05:28:08;8.10;99.90
76211;DHT22;65003;49.518;11.280;2024-02-23T05:30:35;8.40;99.90
76211;DHT22;65003;49.518;11.280;2024-02-23T05:33:01;7.90;99.90
76211;DHT22;65003;49.518;11.280;2024-02-23T05:35:28;7.90;99.90
76211;DHT22;65003;49.518;11.280;2024-02-23T05:37:54;7.90;99.90
76211;DHT22;65003;49.518;11.280;2024-02-23T05:40:21;7.90;99.90
76211;DHT22;65003;49.518;11.280;2024-02-23T05:42:47;7.80;99.90
76211;DHT22;65003;49.518;11.280;2024-02-23T05:45:14;7.90;99.90
76211;DHT22;65003;49.518;11.280;2024-02-23T05:47:41;7.80;99.90
76211;DHT22;65003;49.518;11.280;2024-02-23T05:50:08;7.70;99.90
76211;DHT22;65003;49.518;11.280;2024-02-23T05:52:34;7.70;99.90
76211;DHT22;65003;49.518;11.280;2024-02-23T05:55:01;8.00;99.90
76211;DHT22;65003;49.518;11.280;2024-02-23T05:57:27;8.40;99.90
76211;DHT22;65003;49.518;11.280;2024-02-23T05:59:54;8.20;99.90
76211;DHT22;65003;49.518;11.280;2024-02-23T06:02:22;8.20;99.90
76211;DHT22;65003;49.518;11.280;2024-02-23T06:04:49;8.40;99.90
76211;DHT22;65003;49.518;11.280;2024-02-23T06:07:15;8.50;99.90
76211;DHT22;65003;49.518;11.280;2024-02-23T06:09:42;8.50;99.90
76211;DHT22;65003;49.518;11.280;2024-02-23T06:12:09;8.60;99.90
76211;DHT22;65003;49.518;11.280;2024-02-23T06:14:35;8.50;99.90
76211;DHT22;65003;49.518;11.280;2024-02-23T06:17:02;8.20;99.90
76211;DHT22;65003;49.518;11.280;2024-02-23T06:19:28;8.40;99.90
76211;DHT22;65003;49.518;11.280;2024-02-23T06:21:55;8.20;99.90
76211;DHT22;65003;49.518;11.280;2024-02-23T06:24:21;8.10;99.90
76211;DHT22;65003;49.518;11.280;2024-02-23T06:26:48;8.10;99.90
76211;DHT22;65003;49.518;11.280;2024-02-23T06:29:15;8.20;99.90
76211;DHT22;65003;49.518;11.280;2024-02-23T06:31:43;7.90;99.90
76211;DHT22;65003;49.518;11.280;2024-02-23T06:34:10;8.70;99.90
76211;DHT22;65003;49.518;11.280;2024-02-23T06:36:36;8.00;99.90
76211;DHT22;65003;49.518;11.280;2024-02-23T06:39:03;7.80;99.90
76211;DHT22;65003;49.518;11.280;2024-02-23T06:41:29;8.00;99.90
76211;DHT22;65003;49.518;11.280;2024-02-23T06:43:56;7.80;99.90
76211;DHT22;65003;49.518;11.280;2024-02-23T06:46:23;7.90;99.90
76211;DHT22;65003;49.518;11.280;2024-02-23T06:48:49;7.90;99.90
76211;DHT22;65003;49.518;11.280;2024-02-23T06:51:16;8.00;99.90
76211;DHT22;65003;49.518;11.280;2024-02-23T06:53:43;8.00;99.90
76211;DHT22;65003;49.518;11.280;2024-02-23T06:56:09;8.00;99.90
76211;DHT22;65003;49.518;11.280;2024-02-23T06:58:36;8.00;99.90
76211;DHT22;65003;49.518;11.280;2024-02-23T07:01:02;8.00;99.90
76211;DHT22;65003;49.518;11.280;2024-02-23T07:03:29;7.90;99.90
76211;DHT22;65003;49.518;11.280;2024-02-23T07:05:55;7.90;99.90
76211;DHT22;65003;49.518;11.280;2024-02-23T07:08:22;7.90;99.90
76211;DHT22;65003;49.518;11.280;2024-02-23T07:10:49;7.90;99.90
76211;DHT22;65003;49.518;11.280;2024-02-23T07:13:15;7.80;99.90
76211;DHT22;65003;49.518;11.280;2024-02-23T07:15:42;8.00;99.90
76211;DHT22;65003;49.518;11.280;2024-02-23T07:18:08;7.90;99.90
76211;DHT22;65003;49.518;11.280;2024-02-23T07:20:35;7.90;99.90
76211;DHT22;65003;49.518;11.280;2024-02-23T07:23:02;7.90;99.90
76211;DHT22;65003;49.518;11.280;2024-02-23T07:25:28;7.70;99.90
76211;DHT22;65003;49.518;11.280;2024-02-23T07:27:55;8.00;99.90
76211;DHT22;65003;49.518;11.280;2024-02-23T07:30:21;7.70;99.90
76211;DHT22;65003;49.518;11.280;2024-02-23T07:32:48;7.90;99.90
76211;DHT22;65003;49.518;11.280;2024-02-23T07:35:14;8.00;99.90
76211;DHT22;65003;49.518;11.280;2024-02-23T07:37:41;8.00;99.90
76211;DHT22;65003;49.518;11.280;2024-02-23T07:40:08;8.00;99.90
76211;DHT22;65003;49.518;11.280;2024-02-23T07:42:34;8.00;99.90
76211;DHT22;65003;49.518;11.280;2024-02-23T07:45:03;8.00;99.90
76211;DHT22;65003;49.518;11.280;2024-02-23T07:47:30;8.20;99.90
76211;DHT22;65003;49.518;11.280;2024-02-23T07:49:56;8.20;99.90
76211;DHT22;65003;49.518;11.280;2024-02-23T07:52:22;8.00;99.90
76211;DHT22;65003;49.518;11.280;2024-02-23T07:54:49;8.00;99.90
76211;DHT22;65003;49.518;11.280;2024-02-23T07:57:16;8.10;99.90
76211;DHT22;65003;49.518;11.280;2024-02-23T07:59:42;8.10;99.90
76211;DHT22;65003;49.518;11.280;2024-02-23T08:02:09;8.00;99.90
76211;DHT22;65003;49.518;11.280;2024-02-23T08:04:36;8.20;99.90
76211;DHT22;65003;49.518;11.280;2024-02-23T08:07:02;8.00;99.90
76211;DHT22;65003;49.518;11.280;2024-02-23T08:09:28;8.00;99.90
76211;DHT22;65003;49.518;11.280;2024-02-23T08:11:55;8.30;99.90
76211;DHT22;65003;49.518;11.280;2024-02-23T08:14:22;8.10;99.90
76211;DHT22;65003;49.518;11.280;2024-02-23T08:16:48;8.20;99.90
76211;DHT22;65003;49.518;11.280;2024-02-23T08:19:15;8.00;99.90
76211;DHT22;65003;49.518;11.280;2024-02-23T08:21:41;8.00;99.90
76211;DHT22;65003;49.518;11.280;2024-02-23T08:24:08;8.20;99.90
76211;DHT22;65003;49.518;11.280;2024-02-23T08:26:35;8.30;99.90
76211;DHT22;65003;49.518;11.280;2024-02-23T08:29:01;8.20;99.90
76211;DHT22;65003;49.518;11.280;2024-02-23T08:31:28;8.30;99.90
76211;DHT22;65003;49.518;11.280;2024-02-23T08:33:54;8.30;99.90
76211;DHT22;65003;49.518;11.280;2024-02-23T08:36:21;8.50;99.90
76211;DHT22;65003;49.518;11.280;2024-02-23T08:38:47;8.50;99.90
76211;DHT22;65003;49.518;11.280;2024-02-23T08:41:14;8.60;99.90
76211;DHT22;65003;49.518;11.280;2024-02-23T08:43:41;8.70;99.90
76211;DHT22;65003;49.518;11.280;2024-02-23T08:46:07;8.70;99.90
76211;DHT22;65003;49.518;11.280;2024-02-23T08:48:34;8.90;99.90
76211;DHT22;65003;49.518;11.280;2024-02-23T08:51:01;9.00;99.90
76211;DHT22;65003;49.518;11.280;2024-02-23T08:53:27;9.10;99.90
76211;DHT22;65003;49.518;11.280;2024-02-23T08:55:54;9.40;99.90
76211;DHT22;65003;49.518;11.280;2024-02-23T08:58:21;9.40;99.90
76211;DHT22;65003;49.518;11.280;2024-02-23T09:00:47;9.40;99.90
76211;DHT22;65003;49.518;11.280;2024-02-23T09:03:14;9.30;99.90
76211;DHT22;65003;49.518;11.280;2024-02-23T09:05:40;9.60;99.90
76211;DHT22;65003;49.518;11.280;2024-02-23T09:08:07;9.10;99.90
76211;DHT22;65003;49.518;11.280;2024-02-23T09:10:34;9.20;99.90
76211;DHT22;65003;49.518;11.280;2024-02-23T09:13:00;9.10;99.90
76211;DHT22;65003;49.518;11.280;2024-02-23T09:15:27;9.10;99.90
76211;DHT22;65003;49.518;11.280;2024-02-23T09:17:53;9.00;99.90
76211;DHT22;65003;49.518;11.280;2024-02-23T09:20:20;8.90;99.90
76211;DHT22;65003;49.518;11.280;2024-02-23T09:22:46;8.90;99.90
76211;DHT22;65003;49.518;11.280;2024-02-23T09:25:13;8.90;99.90
76211;DHT22;65003;49.518;11.280;2024-02-23T09:27:40;9.00;99.90
76211;DHT22;65003;49.518;11.280;2024-02-23T09:30:07;8.80;99.90
76211;DHT22;65003;49.518;11.280;2024-02-23T09:32:33;8.80;99.90
76211;DHT22;65003;49.518;11.280;2024-02-23T09:35:00;8.90;99.90
76211;DHT22;65003;49.518;11.280;2024-02-23T09:37:27;8.80;99.90
76211;DHT22;65003;49.518;11.280;2024-02-23T09:39:53;9.40;99.90
76211;DHT22;65003;49.518;11.280;2024-02-23T09:42:20;8.80;99.90
76211;DHT22;65003;49.518;11.280;2024-02-23T09:44:46;8.80;99.90
76211;DHT22;65003;49.518;11.280;2024-02-23T09:47:13;8.80;99.90
76211;DHT22;65003;49.518;11.280;2024-02-23T09:49:40;8.80;99.90
76211;DHT22;65003;49.518;11.280;2024-02-23T09:52:07;8.70;99.90
76211;DHT22;65003;49.518;11.280;2024-02-23T09:54:34;8.70;99.90
76211;DHT22;65003;49.518;11.280;2024-02-23T09:57:00;8.70;99.90
76211;DHT22;65003;49.518;11.280;2024-02-23T09:59:27;8.70;99.90
76211;DHT22;65003;49.518;11.280;2024-02-23T10:01:54;8.60;99.90
76211;DHT22;65003;49.518;11.280;2024-02-23T10:04:21;8.60;99.90
76211;DHT22;65003;49.518;11.280;2024-02-23T10:06:47;8.60;99.90
76211;DHT22;65003;49.518;11.280;2024-02-23T10:09:14;8.60;99.90
76211;DHT22;65003;49.518;11.280;2024-02-23T10:11:40;8.60;99.90
76211;DHT22;65003;49.518;11.280;2024-02-23T10:14:07;8.50;99.90
76211;DHT22;65003;49.518;11.280;2024-02-23T10:16:34;8.60;99.90
76211;DHT22;65003;49.518;11.280;2024-02-23T10:19:00;8.70;99.90
76211;DHT22;65003;49.518;11.280;2024-02-23T10:21:27;8.60;99.90
76211;DHT22;65003;49.518;11.280;2024-02-23T10:23:55;8.60;99.90
76211;DHT22;65003;49.518;11.280;2024-02-23T10:26:20;8.50;99.90
76211;DHT22;65003;49.518;11.280;2024-02-23T10:28:46;8.40;99.90
76211;DHT22;65003;49.518;11.280;2024-02-23T10:31:13;8.60;99.90
76211;DHT22;65003;49.518;11.280;2024-02-23T10:33:40;8.70;99.90
76211;DHT22;65003;49.518;11.280;2024-02-23T10:36:06;8.70;99.90
76211;DHT22;65003;49.518;11.280;2024-02-23T10:38:36;8.80;99.90
76211;DHT22;65003;49.518;11.280;2024-02-23T10:41:02;9.00;99.90
76211;DHT22;65003;49.518;11.280;2024-02-23T10:43:30;8.80;99.90
76211;DHT22;65003;49.518;11.280;2024-02-23T10:45:57;8.70;99.90
76211;DHT22;65003;49.518;11.280;2024-02-23T10:48:23;8.70;99.90
76211;DHT22;65003;49.518;11.280;2024-02-23T10:50:49;8.70;99.90
76211;DHT22;65003;49.518;11.280;2024-02-23T10:53:16;8.80;99.90
76211;DHT22;65003;49.518;11.280;2024-02-23T10:55:42;8.80;99.90
76211;DHT22;65003;49.518;11.280;2024-02-23T10:58:09;8.90;99.90
76211;DHT22;65003;49.518;11.280;2024-02-23T11:00:36;8.70;99.90
76211;DHT22;65003;49.518;11.280;2024-02-23T11:03:02;8.80;99.90
76211;DHT22;65003;49.518;11.280;2024-02-23T11:05:29;8.90;99.90
76211;DHT22;65003;49.518;11.280;2024-02-23T11:07:56;8.80;99.90
76211;DHT22;65003;49.518;11.280;2024-02-23T11:10:22;8.90;99.90
76211;DHT22;65003;49.518;11.280;2024-02-23T11:12:58;9.00;99.90
76211;DHT22;65003;49.518;11.280;2024-02-23T11:15:26;9.00;99.90
76211;DHT22;65003;49.518;11.280;2024-02-23T11:17:52;9.10;99.90
76211;DHT22;65003;49.518;11.280;2024-02-23T11:20:18;9.10;99.90
76211;DHT22;65003;49.518;11.280;2024-02-23T11:22:45;9.10;99.90
76211;DHT22;65003;49.518;11.280;2024-02-23T11:25:11;8.40;99.90
76211;DHT22;65003;49.518;11.280;2024-02-23T11:27:38;9.00;99.90
76211;DHT22;65003;49.518;11.280;2024-02-23T11:30:07;9.00;99.90
76211;DHT22;65003;49.518;11.280;2024-02-23T11:32:50;9.00;99.90
76211;DHT22;65003;49.518;11.280;2024-02-23T11:35:17;8.90;99.90
76211;DHT22;65003;49.518;11.280;2024-02-23T11:37:55;8.90;99.90
76211;DHT22;65003;49.518;11.280;2024-02-23T11:40:26;9.00;99.90
76211;DHT22;65003;49.518;11.280;2024-02-23T11:42:54;9.00;99.90
76211;DHT22;65003;49.518;11.280;2024-02-23T11:45:19;9.10;99.90
76211;DHT22;65003;49.518;11.280;2024-02-23T11:47:46;9.20;99.90
76211;DHT22;65003;49.518;11.280;2024-02-23T11:50:13;9.40;99.90
76211;DHT22;65003;49.518;11.280;2024-02-23T11:52:39;9.40;99.90
76211;DHT22;65003;49.518;11.280;2024-02-23T11:55:06;9.90;99.90
76211;DHT22;65003;49.518;11.280;2024-02-23T11:57:33;9.40;99.90
76211;DHT22;65003;49.518;11.280;2024-02-23T12:00:00;9.40;99.90
76211;DHT22;65003;49.518;11.280;2024-02-23T12:02:26;9.50;99.90
76211;DHT22;65003;49.518;11.280;2024-02-23T12:04:52;9.50;99.90
76211;DHT22;65003;49.518;11.280;2024-02-23T12:07:19;9.50;99.90
76211;DHT22;65003;49.518;11.280;2024-02-23T12:09:45;9.50;99.90
76211;DHT22;65003;49.518;11.280;2024-02-23T12:12:12;9.50;99.90
76211;DHT22;65003;49.518;11.280;2024-02-23T12:14:39;9.50;99.90
76211;DHT22;65003;49.518;11.280;2024-02-23T12:17:07;9.50;99.90
76211;DHT22;65003;49.518;11.280;2024-02-23T12:19:32;9.40;99.90
76211;DHT22;65003;49.518;11.280;2024-02-23T12:22:00;9.40;99.90
76211;DHT22;65003;49.518;11.280;2024-02-23T12:24:26;9.50;99.90
76211;DHT22;65003;49.518;11.280;2024-02-23T12:26:54;9.60;99.90
76211;DHT22;65003;49.518;11.280;2024-02-23T12:29:21;9.60;99.90
76211;DHT22;65003;49.518;11.280;2024-02-23T12:31:47;9.60;99.90
76211;DHT22;65003;49.518;11.280;2024-02-23T12:34:14;9.60;99.90
76211;DHT22;65003;49.518;11.280;2024-02-23T12:36:40;9.50;99.90
76211;DHT22;65003;49.518;11.280;2024-02-23T12:39:07;10.20;99.90
76211;DHT22;65003;49.518;11.280;2024-02-23T12:41:34;9.40;99.90
76211;DHT22;65003;49.518;11.280;2024-02-23T12:44:00;9.40;99.90
76211;DHT22;65003;49.518;11.280;2024-02-23T12:46:27;9.40;99.90
76211;DHT22;65003;49.518;11.280;2024-02-23T12:48:53;9.30;99.90
76211;DHT22;65003;49.518;11.280;2024-02-23T12:51:24;9.30;99.90
76211;DHT22;65003;49.518;11.280;2024-02-23T12:53:46;9.20;99.90
76211;DHT22;65003;49.518;11.280;2024-02-23T12:56:13;9.20;99.90
76211;DHT22;65003;49.518;11.280;2024-02-23T12:58:40;9.40;99.90
76211;DHT22;65003;49.518;11.280;2024-02-23T13:01:06;9.50;99.90
76211;DHT22;65003;49.518;11.280;2024-02-23T13:03:33;9.50;99.90
76211;DHT22;65003;49.518;11.280;2024-02-23T13:05:59;9.60;99.90
76211;DHT22;65003;49.518;11.280;2024-02-23T13:08:26;9.70;99.90
76211;DHT22;65003;49.518;11.280;2024-02-23T13:10:53;9.60;99.90
76211;DHT22;65003;49.518;11.280;2024-02-23T13:13:19;9.80;99.90
76211;DHT22;65003;49.518;11.280;2024-02-23T13:15:46;8.80;99.90
76211;DHT22;65003;49.518;11.280;2024-02-23T13:18:12;9.60;99.90
76211;DHT22;65003;49.518;11.280;2024-02-23T13:20:39;9.70;99.90
76211;DHT22;65003;49.518;11.280;2024-02-23T13:23:05;9.70;99.90
76211;DHT22;65003;49.518;11.280;2024-02-23T13:25:32;9.70;99.90
76211;DHT22;65003;49.518;11.280;2024-02-23T13:27:59;9.70;99.90
76211;DHT22;65003;49.518;11.280;2024-02-23T13:30:25;9.70;99.90
76211;DHT22;65003;49.518;11.280;2024-02-23T13:32:52;9.60;99.90
76211;DHT22;65003;49.518;11.280;2024-02-23T13:35:18;9.80;99.90
76211;DHT22;65003;49.518;11.280;2024-02-23T13:37:45;9.40;99.90
76211;DHT22;65003;49.518;11.280;2024-02-23T13:40:11;9.40;99.90
76211;DHT22;65003;49.518;11.280;2024-02-23T13:42:38;9.30;99.90
76211;DHT22;65003;49.518;11.280;2024-02-23T13:45:06;9.40;99.90
76211;DHT22;65003;49.518;11.280;2024-02-23T13:47:33;9.40;99.90
76211;DHT22;65003;49.518;11.280;2024-02-23T13:49:59;9.40;99.90
76211;DHT22;65003;49.518;11.280;2024-02-23T13:52:26;9.40;99.90
76211;DHT22;65003;49.518;11.280;2024-02-23T13:54:53;9.50;99.90
76211;DHT22;65003;49.518;11.280;2024-02-23T13:57:19;9.50;99.90
76211;DHT22;65003;49.518;11.280;2024-02-23T13:59:46;9.40;99.90
76211;DHT22;65003;49.518;11.280;2024-02-23T14:02:12;8.90;99.90
76211;DHT22;65003;49.518;11.280;2024-02-23T14:04:40;9.50;99.90
76211;DHT22;65003;49.518;11.280;2024-02-23T14:07:07;9.50;99.90
76211;DHT22;65003;49.518;11.280;2024-02-23T14:09:33;9.50;99.90
76211;DHT22;65003;49.518;11.280;2024-02-23T14:12:00;9.60;99.90
76211;DHT22;65003;49.518;11.280;2024-02-23T14:14:26;9.60;99.90
76211;DHT22;65003;49.518;11.280;2024-02-23T14:16:53;9.50;99.90
76211;DHT22;65003;49.518;11.280;2024-02-23T14:19:19;9.60;99.90
76211;DHT22;65003;49.518;11.280;2024-02-23T14:21:47;9.60;99.90
76211;DHT22;65003;49.518;11.280;2024-02-23T14:24:13;10.10;99.90
76211;DHT22;65003;49.518;11.280;2024-02-23T14:26:39;9.60;99.90
76211;DHT22;65003;49.518;11.280;2024-02-23T14:29:06;9.60;99.90
76211;DHT22;65003;49.518;11.280;2024-02-23T14:31:33;9.60;99.90
76211;DHT22;65003;49.518;11.280;2024-02-23T14:34:00;9.80;99.90
76211;DHT22;65003;49.518;11.280;2024-02-23T14:36:26;9.70;99.90
76211;DHT22;65003;49.518;11.280;2024-02-23T14:38:53;9.70;99.90
76211;DHT22;65003;49.518;11.280;2024-02-23T14:41:20;9.60;99.90
76211;DHT22;65003;49.518;11.280;2024-02-23T14:43:46;9.60;99.90
76211;DHT22;65003;49.518;11.280;2024-02-23T14:46:13;9.70;99.90
76211;DHT22;65003;49.518;11.280;2024-02-23T14:48:39;9.00;99.90
76211;DHT22;65003;49.518;11.280;2024-02-23T14:51:06;9.50;99.90
76211;DHT22;65003;49.518;11.280;2024-02-23T14:53:32;9.40;99.90
76211;DHT22;65003;49.518;11.280;2024-02-23T14:55:59;9.40;99.90
76211;DHT22;65003;49.518;11.280;2024-02-23T14:58:26;9.40;99.90
76211;DHT22;65003;49.518;11.280;2024-02-23T15:00:52;9.40;99.90
76211;DHT22;65003;49.518;11.280;2024-02-23T15:03:19;9.30;99.90
76211;DHT22;65003;49.518;11.280;2024-02-23T15:05:45;9.40;99.90
76211;DHT22;65003;49.518;11.280;2024-02-23T15:08:12;9.30;99.90
76211;DHT22;65003;49.518;11.280;2024-02-23T15:10:39;9.30;99.90
76211;DHT22;65003;49.518;11.280;2024-02-23T15:13:05;9.30;99.90
76211;DHT22;65003;49.518;11.280;2024-02-23T15:15:32;9.50;99.90
76211;DHT22;65003;49.518;11.280;2024-02-23T15:17:58;9.30;99.90
76211;DHT22;65003;49.518;11.280;2024-02-23T15:20:25;9.20;99.90
76211;DHT22;65003;49.518;11.280;2024-02-23T15:22:51;9.20;99.90
76211;DHT22;65003;49.518;11.280;2024-02-23T15:25:18;9.30;99.90